Weather History for Fairmont, MN

Change the Weather History Date:

Tuesday, March 18, 2014

  Actual Average Record
Temperature  
Mean Temperature 36 °F -  
Max Temperature 42 °F 41 °F 80 °F (2012)
Min Temperature 30 °F 24 °F -8 °F (1993)
Degree Days  
Heating Degree Days 29    
Moisture  
Dew Point 28 °F    
Average Humidity 75    
Maximum Humidity 93    
Minimum Humidity 61    
Precipitation  
Precipitation 0.00 in - - ()
Sea Level Pressure  
Sea Level Pressure 29.63 in    
Wind  
Wind Speed 14 mph (ENE)    
Max Wind Speed 21 mph    
Max Gust Speed 26 mph    
Visibility 8 miles    
Events      
Averages and records for this station are not official NWS values.
T = Trace of Precipitation, MM = Missing Value Source: NWS Daily Summary

Daily Weather History Graph

Daily Weather History Graph

Search for Another Location

Airport:

Trip Planner

Search our weather history database for the weather conditions in past years. The results will help you decide how hot, cold, wet, or windy it might be!

Date:

Astronomy

Mar. 18, 2014 Rise Set
Actual Time 7:24 AM CDT 7:27 PM CDT
Civil Twilight 6:55 AM CDT 7:56 PM CDT
Nautical Twilight 6:22 AM CDT 8:29 PM CDT
Astronomical Twilight 5:48 AM CDT 9:03 PM CDT
Moon 9:50 PM CDT (3/18) 8:10 AM CDT (3/18)
Length of Visible Light 13h 00m
Length of Day
12h 03m
Waning Gibbous, 96% of the Moon is Illuminated
Mar 18
Waning Gibbous
Mar 23
Last Quarter
Mar 30
New
Apr 7
First Quarter
Apr 15
Full

Hourly Weather History & Observations

Time (CDT) Temp. Windchill Dew Point Humidity Pressure Visibility Wind Dir Wind Speed Gust Speed Precip Events Conditions
12:15 AM 35.6 °F 25.5 °F 24.8 °F 65% 29.51 in 10.0 mi SE 17.3 mph - N/A   Clear
12:35 AM 35.6 °F 25.5 °F 24.8 °F 65% 29.52 in 10.0 mi SE 17.3 mph - N/A   Clear
12:55 AM 35.6 °F 25.5 °F 24.8 °F 65% 29.51 in 10.0 mi SE 17.3 mph 23.0 mph N/A   Clear
1:15 AM 35.6 °F 26.2 °F 24.8 °F 65% 29.52 in 10.0 mi SE 15.0 mph - N/A   Clear
1:35 AM 35.6 °F 25.5 °F 24.8 °F 65% 29.52 in 10.0 mi SE 17.3 mph 23.0 mph N/A   Partly Cloudy
1:55 AM 35.6 °F 26.2 °F 24.8 °F 65% 29.52 in 10.0 mi SE 15.0 mph - N/A   Mostly Cloudy
2:15 AM 35.6 °F 26.6 °F 24.8 °F 65% 29.53 in 10.0 mi SE 13.8 mph - N/A   Overcast
2:35 AM 35.6 °F 26.2 °F 26.6 °F 70% 29.53 in 10.0 mi SE 15.0 mph 18.4 mph N/A   Overcast
2:55 AM 35.6 °F 26.6 °F 26.6 °F 70% 29.54 in 10.0 mi SE 13.8 mph - N/A   Overcast
3:15 AM 35.6 °F 26.2 °F 26.6 °F 70% 29.53 in 10.0 mi ESE 15.0 mph - N/A   Overcast
3:35 AM 35.6 °F 26.6 °F 26.6 °F 70% 29.54 in 10.0 mi SE 13.8 mph - N/A   Overcast
3:55 AM 35.6 °F 27.1 °F 26.6 °F 70% 29.54 in 10.0 mi SE 12.7 mph - N/A   Overcast
4:15 AM 35.6 °F 28.0 °F 26.6 °F 70% 29.54 in 10.0 mi ESE 10.4 mph - N/A   Overcast
4:35 AM 35.6 °F 27.5 °F 26.6 °F 70% 29.54 in 10.0 mi East 11.5 mph - N/A   Overcast
4:55 AM 35.6 °F 27.5 °F 26.6 °F 70% 29.54 in 10.0 mi East 11.5 mph - N/A   Overcast
5:15 AM 33.8 °F 26.4 °F 26.6 °F 75% 29.55 in 10.0 mi East 9.2 mph - N/A   Overcast
5:35 AM 33.8 °F 26.4 °F 26.6 °F 75% 29.55 in 10.0 mi ESE 9.2 mph - N/A   Overcast
5:55 AM 33.8 °F 25.8 °F 26.6 °F 75% 29.57 in 10.0 mi ESE 10.4 mph - N/A   Overcast
6:15 AM 33.8 °F 27.0 °F 26.6 °F 75% 29.58 in 10.0 mi East 8.1 mph - N/A   Overcast
6:35 AM 33.8 °F 25.8 °F 26.6 °F 75% 29.57 in 10.0 mi ESE 10.4 mph - N/A   Overcast
6:55 AM 33.8 °F 24.8 °F 26.6 °F 75% 29.57 in 10.0 mi SE 12.7 mph - N/A   Overcast
7:15 AM 33.8 °F 25.3 °F 26.6 °F 75% 29.57 in 10.0 mi SE 11.5 mph - N/A   Mostly Cloudy
7:35 AM 33.8 °F 25.3 °F 26.6 °F 75% 29.57 in 10.0 mi SE 11.5 mph - N/A   Scattered Clouds
7:55 AM 33.8 °F 27.7 °F 26.6 °F 75% 29.59 in 10.0 mi SE 6.9 mph - N/A   Partly Cloudy
8:15 AM 33.8 °F 26.4 °F 26.6 °F 75% 29.59 in 10.0 mi SE 9.2 mph - N/A   Clear
8:35 AM 33.8 °F 25.8 °F 26.6 °F 75% 29.59 in 10.0 mi SE 10.4 mph - N/A   Clear
8:55 AM 33.8 °F 25.8 °F 26.6 °F 75% 29.59 in 10.0 mi SE 10.4 mph - N/A   Clear
9:15 AM 35.6 °F 27.5 °F 26.6 °F 70% 29.59 in 10.0 mi ESE 11.5 mph - N/A   Clear
9:35 AM 35.6 °F 27.5 °F 26.6 °F 70% 29.59 in 10.0 mi ESE 11.5 mph - N/A   Clear
9:55 AM 37.4 °F 30.8 °F 26.6 °F 65% 29.59 in 10.0 mi SE 9.2 mph - N/A   Clear
10:15 AM 35.6 °F 29.2 °F 26.6 °F 70% 29.61 in 10.0 mi East 8.1 mph - N/A   Clear
10:35 AM 37.4 °F 32.8 °F 26.6 °F 65% 29.63 in 10.0 mi East 5.8 mph - N/A   Clear
10:55 AM 37.4 °F 30.8 °F 26.6 °F 65% 29.63 in 10.0 mi East 9.2 mph - N/A   Clear
11:15 AM 39.2 °F 33.0 °F 26.6 °F 61% 29.63 in 10.0 mi ESE 9.2 mph - N/A   Clear
11:35 AM 39.2 °F 35.9 °F 28.4 °F 65% 29.64 in 10.0 mi ENE 4.6 mph - N/A   Clear
11:55 AM 39.2 °F 33.0 °F 28.4 °F 65% 29.64 in 10.0 mi East 9.2 mph - N/A   Mostly Cloudy
12:15 PM 39.2 °F 33.6 °F 26.6 °F 61% 29.63 in 10.0 mi ENE 8.1 mph - N/A   Overcast
12:35 PM 39.2 °F 31.6 °F 28.4 °F 65% 29.62 in 10.0 mi ENE 12.7 mph - N/A   Mostly Cloudy
12:55 PM 39.2 °F 32.0 °F 30.2 °F 70% 29.63 in 10.0 mi NE 11.5 mph - N/A   Clear
1:15 PM 41.0 °F 33.9 °F 30.2 °F 65% 29.62 in 10.0 mi NNE 12.7 mph - N/A   Clear
1:35 PM 41.0 °F 33.1 °F 30.2 °F 65% 29.61 in 10.0 mi NE 15.0 mph - N/A   Clear
1:55 PM 42.8 °F 35.8 °F 33.8 °F 70% 29.62 in 10.0 mi ENE 13.8 mph 18.4 mph N/A   Partly Cloudy
2:15 PM 42.8 °F 35.1 °F 32.0 °F 66% 29.61 in 10.0 mi NE 16.1 mph - N/A   Scattered Clouds
2:35 PM 42.8 °F 35.4 °F 32.0 °F 66% 29.61 in 10.0 mi ENE 15.0 mph - N/A   Mostly Cloudy
2:55 PM 41.0 °F 33.9 °F 30.2 °F 65% 29.61 in 10.0 mi NE 12.7 mph - N/A   Overcast
3:15 PM 39.2 °F 30.8 °F 30.2 °F 70% 29.61 in 10.0 mi ENE 15.0 mph - N/A   Mostly Cloudy
3:35 PM 39.2 °F 30.8 °F 30.2 °F 70% 29.62 in 10.0 mi NE 15.0 mph - N/A   Mostly Cloudy
3:55 PM 39.2 °F 31.6 °F 30.2 °F 70% 29.63 in 10.0 mi NE 12.7 mph - N/A   Overcast
4:15 PM 37.4 °F 28.2 °F 30.2 °F 75% 29.64 in 10.0 mi NE 16.1 mph - N/A   Overcast
4:35 PM 37.4 °F 28.9 °F 30.2 °F 75% 29.65 in 10.0 mi NE 13.8 mph - N/A   Overcast
4:55 PM 37.4 °F 29.8 °F 30.2 °F 75% 29.65 in 10.0 mi NE 11.5 mph - N/A   Overcast
5:15 PM 35.6 °F 25.9 °F 28.4 °F 75% 29.66 in 10.0 mi NNE 16.1 mph - N/A   Overcast
5:35 PM 35.6 °F 26.2 °F 28.4 °F 75% 29.67 in 10.0 mi NNE 15.0 mph - N/A   Overcast
5:55 PM 35.6 °F 27.1 °F 26.6 °F 70% 29.68 in 10.0 mi North 12.7 mph - N/A   Overcast
6:15 PM 33.8 °F 23.5 °F 28.4 °F 81% 29.69 in 10.0 mi North 16.1 mph 21.9 mph N/A   Overcast
6:35 PM 33.8 °F 23.5 °F 28.4 °F 81% 29.70 in 10.0 mi North 16.1 mph 20.7 mph N/A   Overcast
6:55 PM 32.0 °F 20.8 °F 28.4 °F 87% 29.70 in 2.5 mi North 17.3 mph - N/A   Overcast
7:15 PM 32.0 °F 21.6 °F 28.4 °F 87% 29.71 in 1.8 mi North 15.0 mph - N/A   Overcast
7:35 PM 32.0 °F 21.6 °F 28.4 °F 87% 29.72 in 2.5 mi North 15.0 mph - N/A   Overcast
7:55 PM 30.2 °F 18.5 °F 28.4 °F 93% 29.72 in 2.0 mi North 17.3 mph - N/A   Overcast
8:15 PM 30.2 °F 18.1 °F 28.4 °F 93% 29.73 in 1.8 mi North 18.4 mph - N/A   Overcast
8:35 PM 30.2 °F 18.1 °F 28.4 °F 93% 29.74 in 1.5 mi North 18.4 mph - N/A   Overcast
8:55 PM 30.2 °F 18.1 °F 28.4 °F 93% 29.75 in 1.5 mi North 18.4 mph - N/A   Overcast
9:15 PM 30.2 °F 17.4 °F 28.4 °F 93% 29.75 in 1.2 mi North 20.7 mph 26.5 mph N/A   Overcast
9:35 PM 30.2 °F 18.1 °F 28.4 °F 93% 29.76 in 2.0 mi North 18.4 mph - N/A   Overcast
9:55 PM 30.2 °F 18.1 °F 26.6 °F 86% 29.77 in 3.0 mi North 18.4 mph - N/A   Overcast
10:15 PM 30.2 °F 18.1 °F 28.4 °F 93% 29.77 in 2.5 mi North 18.4 mph - N/A   Overcast
10:35 PM 30.2 °F 18.5 °F 28.4 °F 93% 29.77 in 1.8 mi North 17.3 mph - N/A   Overcast
10:55 PM 30.2 °F 18.9 °F 28.4 °F 93% 29.78 in 2.0 mi North 16.1 mph - N/A   Overcast
11:15 PM 30.2 °F 18.5 °F 26.6 °F 86% 29.78 in 2.0 mi North 17.3 mph - N/A   Overcast
11:35 PM 30.2 °F 18.1 °F 28.4 °F 93% 29.78 in 2.0 mi North 18.4 mph - N/A   Overcast
11:55 PM 30.2 °F 17.4 °F 26.6 °F 86% 29.79 in 3.0 mi North 20.7 mph 25.3 mph N/A   Overcast